Time;durP1;ratioP1;P1;durP2;ratioP2;P2;SDS_P1;SDS_P2;PMS_P1;PMS_P2;Temp;Humidity;BMP_temperature;BMP_pressure;BME280_temperature;BME280_humidity;BME280_pressure;Samples;Min_cycle;Max_cycle;Signal;HPM_P1;HPM_P2
2022/03/21 00:00:27;;;;;;;12.67;9.23;;;;;;;;;;5000015;28;20231;-82
2022/03/21 00:02:57;;;;;;;11.50;9.20;;;;;;;;;;5000365;28;20696;-81
2022/03/21 00:05:25;;;;;;;13.20;9.47;;;;;;;;;;4980426;28;20232;-80
2022/03/21 00:07:52;;;;;;;13.60;9.13;;;;;;;;;;4981152;28;20212;-82
2022/03/21 00:10:19;;;;;;;13.10;8.87;;;;;;;;;;4980403;28;20228;-81
2022/03/21 00:12:46;;;;;;;13.13;9.37;;;;;;;;;;4981415;28;20219;-82
2022/03/21 00:15:14;;;;;;;14.50;9.73;;;;;;;;;;4981732;28;20205;-82
2022/03/21 00:17:41;;;;;;;14.23;9.00;;;;;;;;;;4985791;28;20269;-82
2022/03/21 00:20:11;;;;;;;12.80;8.77;;;;;;;;;;4983588;28;20225;-82
2022/03/21 00:22:38;;;;;;;13.60;8.77;;;;;;;;;;4983002;28;20219;-82
2022/03/21 00:25:06;;;;;;;11.50;8.33;;;;;;;;;;4982648;28;20260;-81
2022/03/21 00:27:33;;;;;;;10.53;8.57;;;;;;;;;;4982186;28;20219;-82
2022/03/21 00:30:00;;;;;;;12.80;9.37;;;;;;;;;;4981889;28;20276;-82
2022/03/21 00:32:27;;;;;;;12.60;9.23;;;;;;;;;;4981317;28;20240;-81
2022/03/21 00:34:54;;;;;;;13.60;9.30;;;;;;;;;;4981818;28;20212;-82
2022/03/21 00:37:24;;;;;;;13.07;8.77;;;;;;;;;;4981716;28;20240;-81
2022/03/21 00:39:51;;;;;;;11.73;8.70;;;;;;;;;;4981626;28;20221;-82
2022/03/21 00:42:18;;;;;;;12.80;8.93;;;;;;;;;;4981419;28;20240;-81
2022/03/21 00:44:45;;;;;;;11.90;8.60;;;;;;;;;;4981478;28;20572;-82
2022/03/21 00:47:14;;;;;;;14.57;9.23;;;;;;;;;;4979999;28;20232;-83
2022/03/21 00:49:41;;;;;;;12.53;8.87;;;;;;;;;;4981339;28;20237;-82
2022/03/21 00:52:09;;;;;;;14.40;9.30;;;;;;;;;;4979706;28;20247;-82
2022/03/21 00:54:38;;;;;;;12.43;7.97;;;;;;;;;;4981472;28;20208;-82
2022/03/21 00:57:05;;;;;;;12.60;9.27;;;;;;;;;;4979388;28;20240;-82
2022/03/21 00:59:32;;;;;;;13.20;8.93;;;;;;;;;;4980051;28;20232;-83
2022/03/21 01:02:00;;;;;;;13.50;8.63;;;;;;;;;;4979252;28;20247;-82
2022/03/21 01:04:27;;;;;;;13.60;9.33;;;;;;;;;;4980207;28;20235;-82
2022/03/21 01:06:54;;;;;;;16.30;9.07;;;;;;;;;;4979237;28;20240;-82
2022/03/21 01:09:21;;;;;;;13.73;9.13;;;;;;;;;;4979731;28;20248;-82
2022/03/21 01:11:49;;;;;;;13.33;8.73;;;;;;;;;;4979851;28;20236;-82
2022/03/21 01:14:16;;;;;;;11.43;8.07;;;;;;;;;;4979218;28;20201;-82
2022/03/21 01:16:43;;;;;;;11.43;8.00;;;;;;;;;;4980179;28;20243;-82
2022/03/21 01:19:10;;;;;;;11.03;8.10;;;;;;;;;;4980065;28;20982;-81
2022/03/21 01:21:37;;;;;;;13.37;8.90;;;;;;;;;;4980708;28;20594;-82
2022/03/21 01:24:05;;;;;;;9.77;8.17;;;;;;;;;;4979674;28;20736;-81
2022/03/21 01:26:32;;;;;;;11.90;8.40;;;;;;;;;;4979127;28;20241;-82
2022/03/21 01:29:00;;;;;;;11.20;7.73;;;;;;;;;;4989566;28;20736;-83
2022/03/21 01:31:27;;;;;;;14.20;8.67;;;;;;;;;;4976059;28;20291;-82
2022/03/21 01:33:54;;;;;;;10.67;8.13;;;;;;;;;;4975955;28;20285;-81
2022/03/21 01:36:22;;;;;;;14.33;9.40;;;;;;;;;;4975432;28;20728;-83
2022/03/21 01:38:49;;;;;;;12.27;8.80;;;;;;;;;;4975855;28;20263;-82
2022/03/21 01:41:16;;;;;;;13.73;8.20;;;;;;;;;;4975333;28;20240;-82
2022/03/21 01:43:56;;;;;;;11.07;8.33;;;;;;;;;;4975892;28;20233;-81
2022/03/21 01:46:24;;;;;;;12.07;8.43;;;;;;;;;;4975714;28;20239;-82
2022/03/21 01:48:51;;;;;;;12.73;8.73;;;;;;;;;;4975716;28;20237;-81
2022/03/21 01:51:18;;;;;;;11.60;8.80;;;;;;;;;;4976294;28;20651;-81
2022/03/21 01:56:30;;;;;;;11.83;9.10;;;;;;;;;;4975475;28;20246;-82
2022/03/21 01:58:57;;;;;;;12.30;8.70;;;;;;;;;;4976804;28;20232;-81
2022/03/21 02:01:25;;;;;;;14.33;9.47;;;;;;;;;;4976331;28;20264;-81
2022/03/21 02:03:53;;;;;;;14.60;8.47;;;;;;;;;;4976698;28;20228;-81
2022/03/21 02:06:21;;;;;;;12.90;8.83;;;;;;;;;;4976705;28;20263;-82
2022/03/21 02:08:49;;;;;;;11.77;8.60;;;;;;;;;;4992183;28;20256;-82
2022/03/21 02:11:16;;;;;;;10.20;8.73;;;;;;;;;;4998380;28;20297;-82
2022/03/21 02:13:43;;;;;;;12.97;9.30;;;;;;;;;;4997087;28;20208;-82
2022/03/21 02:16:11;;;;;;;12.57;9.90;;;;;;;;;;4995329;28;20794;-82
2022/03/21 02:18:41;;;;;;;13.33;9.27;;;;;;;;;;4994870;28;20561;-82
2022/03/21 02:21:10;;;;;;;15.70;8.80;;;;;;;;;;4995071;28;20243;-81
2022/03/21 02:23:44;;;;;;;12.70;8.80;;;;;;;;;;4995737;28;20242;-81
2022/03/21 02:26:12;;;;;;;14.77;8.80;;;;;;;;;;4995791;28;20282;-82
2022/03/21 02:28:40;;;;;;;13.13;9.47;;;;;;;;;;4995885;28;20324;-82
2022/03/21 02:31:07;;;;;;;15.23;10.00;;;;;;;;;;4994943;28;20240;-81
2022/03/21 02:33:34;;;;;;;13.53;9.43;;;;;;;;;;4995293;28;20220;-82
2022/03/21 02:36:03;;;;;;;11.13;8.83;;;;;;;;;;5004465;28;20238;-81
2022/03/21 02:38:30;;;;;;;15.00;9.13;;;;;;;;;;5001300;28;20270;-82
2022/03/21 02:40:57;;;;;;;12.30;8.60;;;;;;;;;;5000636;28;20249;-81
2022/03/21 02:43:26;;;;;;;11.97;9.40;;;;;;;;;;5000758;28;20215;-81
2022/03/21 02:45:53;;;;;;;11.00;9.00;;;;;;;;;;4999823;28;20245;-82
2022/03/21 02:48:20;;;;;;;11.60;8.93;;;;;;;;;;5000652;28;20204;-81
2022/03/21 02:50:55;;;;;;;11.67;8.90;;;;;;;;;;4999984;28;20584;-82
2022/03/21 02:53:22;;;;;;;12.27;9.13;;;;;;;;;;5000166;28;20212;-81
2022/03/21 02:55:54;;;;;;;11.00;8.40;;;;;;;;;;4999982;28;20257;-82
2022/03/21 02:58:21;;;;;;;14.20;9.53;;;;;;;;;;5012025;28;20201;-82
2022/03/21 03:00:50;;;;;;;13.13;9.07;;;;;;;;;;5004624;28;20239;-81
2022/03/21 03:03:17;;;;;;;13.13;9.00;;;;;;;;;;4995694;28;20208;-81
2022/03/21 03:05:44;;;;;;;14.23;9.23;;;;;;;;;;4995143;28;20250;-81
2022/03/21 03:08:11;;;;;;;10.83;8.40;;;;;;;;;;4995008;28;20213;-82
2022/03/21 03:10:38;;;;;;;16.00;9.23;;;;;;;;;;4994551;28;20237;-84
2022/03/21 03:13:05;;;;;;;12.97;9.77;;;;;;;;;;4992730;28;20798;-84
2022/03/21 03:15:32;;;;;;;11.17;9.47;;;;;;;;;;4993784;28;20596;-83
2022/03/21 03:18:01;;;;;;;14.00;9.47;;;;;;;;;;4993947;28;20209;-84
2022/03/21 03:20:28;;;;;;;13.77;10.00;;;;;;;;;;4993740;28;20318;-83
2022/03/21 03:22:56;;;;;;;14.53;9.57;;;;;;;;;;4994142;28;20247;-83
2022/03/21 03:25:24;;;;;;;13.40;9.63;;;;;;;;;;4993701;28;20238;-83
2022/03/21 03:27:51;;;;;;;13.70;9.00;;;;;;;;;;4993277;28;20209;-83
2022/03/21 03:30:18;;;;;;;12.70;9.53;;;;;;;;;;4992970;28;20654;-84
2022/03/21 03:32:47;;;;;;;12.27;9.50;;;;;;;;;;4993749;28;20624;-83
2022/03/21 03:35:16;;;;;;;11.03;8.77;;;;;;;;;;4993369;28;20207;-84
2022/03/21 03:37:43;;;;;;;13.27;8.53;;;;;;;;;;4993169;28;20218;-83
2022/03/21 03:40:10;;;;;;;11.30;8.93;;;;;;;;;;4992703;28;20228;-84
2022/03/21 03:42:37;;;;;;;11.70;9.10;;;;;;;;;;4992789;28;20256;-84
2022/03/21 03:45:05;;;;;;;13.87;8.87;;;;;;;;;;4992500;28;20220;-83
2022/03/21 03:47:32;;;;;;;13.47;8.77;;;;;;;;;;4992888;28;20209;-83
2022/03/21 03:49:59;;;;;;;11.30;9.10;;;;;;;;;;4993181;28;20571;-82
2022/03/21 03:52:27;;;;;;;12.07;8.50;;;;;;;;;;4992346;28;20235;-83
2022/03/21 03:54:55;;;;;;;14.10;9.13;;;;;;;;;;4993184;28;20207;-83
2022/03/21 03:57:22;;;;;;;12.27;8.80;;;;;;;;;;4992361;28;20243;-83
2022/03/21 03:59:49;;;;;;;12.63;9.13;;;;;;;;;;4993144;28;20228;-83
2022/03/21 04:02:16;;;;;;;12.37;8.67;;;;;;;;;;4986627;28;20229;-83
2022/03/21 04:04:43;;;;;;;13.27;9.00;;;;;;;;;;4973299;28;20597;-84
2022/03/21 04:07:10;;;;;;;11.83;8.87;;;;;;;;;;4972938;28;20264;-83
2022/03/21 04:09:39;;;;;;;11.63;8.47;;;;;;;;;;4973981;28;20247;-83
2022/03/21 04:12:06;;;;;;;13.13;8.80;;;;;;;;;;4973658;28;20243;-83
2022/03/21 04:14:33;;;;;;;12.37;8.70;;;;;;;;;;4973937;28;20257;-83
2022/03/21 04:17:00;;;;;;;14.40;9.50;;;;;;;;;;4973113;28;20711;-84
2022/03/21 04:19:27;;;;;;;14.83;9.00;;;;;;;;;;4973513;28;20291;-83
2022/03/21 04:21:54;;;;;;;14.27;8.60;;;;;;;;;;4973302;28;20602;-83
2022/03/21 04:24:21;;;;;;;13.93;9.40;;;;;;;;;;4975798;28;20566;-81
2022/03/21 04:26:50;;;;;;;12.10;8.17;;;;;;;;;;4977401;28;20241;-84
2022/03/21 04:29:17;;;;;;;10.13;8.10;;;;;;;;;;4977093;28;20710;-83
2022/03/21 04:31:44;;;;;;;12.77;9.03;;;;;;;;;;4976746;28;20244;-84
2022/03/21 04:34:11;;;;;;;11.13;8.27;;;;;;;;;;4977201;28;20236;-83
2022/03/21 04:36:40;;;;;;;10.77;8.67;;;;;;;;;;4976604;28;20244;-83
2022/03/21 04:39:07;;;;;;;14.40;8.97;;;;;;;;;;4977248;28;20236;-83
2022/03/21 04:41:34;;;;;;;13.43;8.73;;;;;;;;;;4976590;28;20240;-83
2022/03/21 04:44:02;;;;;;;12.23;9.30;;;;;;;;;;4976997;28;20629;-81
2022/03/21 04:46:29;;;;;;;12.80;9.13;;;;;;;;;;4975748;28;20241;-83
2022/03/21 04:48:56;;;;;;;12.73;9.10;;;;;;;;;;4976526;28;20700;-84
2022/03/21 04:51:23;;;;;;;12.23;9.00;;;;;;;;;;4976066;28;20243;-83
2022/03/21 04:53:50;;;;;;;12.20;9.00;;;;;;;;;;4976791;28;20214;-83
2022/03/21 04:56:17;;;;;;;14.13;8.47;;;;;;;;;;4976060;28;20233;-83
2022/03/21 04:58:44;;;;;;;12.57;8.87;;;;;;;;;;4976420;28;20224;-84
2022/03/21 05:01:13;;;;;;;12.73;8.83;;;;;;;;;;4976446;28;20240;-83
2022/03/21 05:03:40;;;;;;;12.43;9.13;;;;;;;;;;4976423;28;20212;-83
2022/03/21 05:06:07;;;;;;;12.20;8.73;;;;;;;;;;4975599;28;20244;-83
2022/03/21 05:08:34;;;;;;;12.53;8.53;;;;;;;;;;4977099;28;20216;-83
2022/03/21 05:11:01;;;;;;;11.50;8.37;;;;;;;;;;4985881;28;20235;-82
2022/03/21 05:13:29;;;;;;;13.83;8.60;;;;;;;;;;4997992;28;20209;-82
2022/03/21 05:15:56;;;;;;;10.60;8.00;;;;;;;;;;4998991;28;20238;-81
2022/03/21 05:18:24;;;;;;;10.97;8.90;;;;;;;;;;4994700;28;20204;-82
2022/03/21 05:20:51;;;;;;;12.67;8.63;;;;;;;;;;4984395;28;20616;-82
2022/03/21 05:31:32;;;;;;;12.03;8.83;;;;;;;;;;4996273;28;20816;-83
2022/03/21 05:36:46;;;;;;;10.83;8.47;;;;;;;;;;4999645;28;20366;-85
2022/03/21 05:39:13;;;;;;;10.77;8.13;;;;;;;;;;4988752;28;20735;-84
2022/03/21 05:41:40;;;;;;;12.40;9.10;;;;;;;;;;4995694;28;20264;-83
2022/03/21 05:44:07;;;;;;;11.07;8.53;;;;;;;;;;4995306;28;20215;-84
2022/03/21 05:46:34;;;;;;;14.40;9.27;;;;;;;;;;4994197;28;20375;-85
2022/03/21 05:49:03;;;;;;;13.73;9.00;;;;;;;;;;4995141;28;20239;-84
2022/03/21 05:51:32;;;;;;;14.80;9.37;;;;;;;;;;5006746;28;20239;-85
2022/03/21 05:54:00;;;;;;;12.83;8.30;;;;;;;;;;5009114;28;20211;-84
2022/03/21 05:56:28;;;;;;;11.20;8.73;;;;;;;;;;4993826;28;20238;-85
2022/03/21 05:58:56;;;;;;;16.67;9.30;;;;;;;;;;4994799;28;20915;-82
2022/03/21 06:01:24;;;;;;;13.73;8.83;;;;;;;;;;4976323;28;20224;-82
2022/03/21 06:03:52;;;;;;;12.63;8.57;;;;;;;;;;4994247;28;20181;-82
2022/03/21 06:06:21;;;;;;;12.80;9.20;;;;;;;;;;4990429;28;20253;-84
2022/03/21 06:08:51;;;;;;;17.33;9.73;;;;;;;;;;4980589;28;20238;-85
2022/03/21 06:11:18;;;;;;;13.80;9.23;;;;;;;;;;4988676;28;20255;-84
2022/03/21 06:13:45;;;;;;;16.50;9.17;;;;;;;;;;4993854;28;20212;-85
2022/03/21 06:16:12;;;;;;;13.43;9.23;;;;;;;;;;4992287;28;20236;-84
2022/03/21 06:18:40;;;;;;;13.37;9.30;;;;;;;;;;4973697;28;20208;-85
2022/03/21 06:21:08;;;;;;;13.07;9.40;;;;;;;;;;4973789;28;20662;-83
2022/03/21 06:23:37;;;;;;;14.00;10.07;;;;;;;;;;4974305;28;20628;-85
2022/03/21 06:26:04;;;;;;;11.63;9.50;;;;;;;;;;4973616;28;20247;-84
2022/03/21 06:28:32;;;;;;;12.33;9.23;;;;;;;;;;4973786;28;20212;-85
2022/03/21 06:30:59;;;;;;;15.57;9.60;;;;;;;;;;4973461;28;20236;-85
2022/03/21 06:33:27;;;;;;;13.70;9.97;;;;;;;;;;4974322;28;20193;-84
2022/03/21 06:35:54;;;;;;;13.37;9.30;;;;;;;;;;4973486;28;20738;-84
2022/03/21 06:38:22;;;;;;;13.33;9.10;;;;;;;;;;4974062;28;20576;-85
2022/03/21 06:40:50;;;;;;;13.73;10.13;;;;;;;;;;4973784;28;20240;-84
2022/03/21 06:43:20;;;;;;;13.17;9.57;;;;;;;;;;4973746;28;20220;-85
2022/03/21 06:45:49;;;;;;;17.20;10.27;;;;;;;;;;4973519;28;21085;-84
2022/03/21 06:48:17;;;;;;;14.40;9.93;;;;;;;;;;4987085;28;20204;-83
2022/03/21 06:50:46;;;;;;;14.00;10.10;;;;;;;;;;4974401;28;20241;-83
2022/03/21 06:53:13;;;;;;;11.57;9.00;;;;;;;;;;4975472;28;20205;-82
2022/03/21 06:55:40;;;;;;;12.77;9.27;;;;;;;;;;4990730;28;20223;-83
2022/03/21 06:58:11;;;;;;;12.07;9.83;;;;;;;;;;4992729;28;20680;-82
2022/03/21 07:00:39;;;;;;;13.73;9.70;;;;;;;;;;4992582;28;20236;-83
2022/03/21 07:03:06;;;;;;;14.43;10.37;;;;;;;;;;4992888;28;20210;-83
2022/03/21 07:05:33;;;;;;;13.07;9.53;;;;;;;;;;4993068;28;20238;-82
2022/03/21 07:08:00;;;;;;;16.03;9.70;;;;;;;;;;4992656;28;20208;-83
2022/03/21 07:10:27;;;;;;;18.03;10.03;;;;;;;;;;4992228;28;20239;-82
2022/03/21 07:12:54;;;;;;;16.93;9.83;;;;;;;;;;4992976;28;20200;-83
2022/03/21 07:15:23;;;;;;;13.47;8.77;;;;;;;;;;4992847;28;20215;-82
2022/03/21 07:17:51;;;;;;;10.77;7.60;;;;;;;;;;4993094;28;20201;-83
2022/03/21 07:20:20;;;;;;;13.57;9.03;;;;;;;;;;4993868;28;20700;-83
2022/03/21 07:22:47;;;;;;;13.77;9.43;;;;;;;;;;4995783;28;20208;-82
2022/03/21 07:25:14;;;;;;;11.57;8.93;;;;;;;;;;4995449;28;20213;-83
2022/03/21 07:27:44;;;;;;;12.10;9.40;;;;;;;;;;4993879;28;20206;-83
2022/03/21 07:30:12;;;;;;;14.10;8.17;;;;;;;;;;4994476;28;20265;-82
2022/03/21 07:32:41;;;;;;;11.50;8.40;;;;;;;;;;4994739;28;20724;-83
2022/03/21 07:35:08;;;;;;;12.27;8.73;;;;;;;;;;4992584;28;20212;-82
2022/03/21 07:37:39;;;;;;;13.57;9.10;;;;;;;;;;4996154;28;20200;-83
2022/03/21 07:40:10;;;;;;;12.57;8.33;;;;;;;;;;4994779;28;20301;-82
2022/03/21 07:42:37;;;;;;;11.63;8.53;;;;;;;;;;4995565;28;20251;-83
2022/03/21 07:47:51;;;;;;;11.67;8.33;;;;;;;;;;4995411;28;20282;-83
2022/03/21 07:50:18;;;;;;;11.50;8.47;;;;;;;;;;4995707;28;20277;-82
2022/03/21 07:52:45;;;;;;;10.67;8.33;;;;;;;;;;4996802;28;20210;-82
2022/03/21 07:55:12;;;;;;;10.27;7.27;;;;;;;;;;4996253;28;20309;-83
2022/03/21 07:57:39;;;;;;;10.67;8.63;;;;;;;;;;4995643;28;20258;-82
2022/03/21 08:00:09;;;;;;;12.17;7.77;;;;;;;;;;4997629;28;20216;-83
2022/03/21 08:02:36;;;;;;;11.70;7.93;;;;;;;;;;4999309;28;20754;-83
2022/03/21 08:05:05;;;;;;;11.60;7.90;;;;;;;;;;4997864;28;20219;-83
2022/03/21 08:07:32;;;;;;;10.20;8.50;;;;;;;;;;5004971;28;20231;-83
2022/03/21 08:10:00;;;;;;;10.77;7.20;;;;;;;;;;4994528;28;20326;-83
2022/03/21 08:12:27;;;;;;;9.97;7.80;;;;;;;;;;4996225;28;20239;-83
2022/03/21 08:14:59;;;;;;;13.43;8.67;;;;;;;;;;4996034;28;20197;-83
2022/03/21 08:17:27;;;;;;;10.50;8.23;;;;;;;;;;4994932;28;20240;-84
2022/03/21 08:19:54;;;;;;;11.90;7.90;;;;;;;;;;4994829;28;20750;-84
2022/03/21 08:22:22;;;;;;;12.50;8.47;;;;;;;;;;4994233;28;20236;-84
2022/03/21 08:24:49;;;;;;;12.47;8.60;;;;;;;;;;4995375;28;20288;-82
2022/03/21 08:27:16;;;;;;;10.30;7.70;;;;;;;;;;4994099;28;20243;-83
2022/03/21 08:29:43;;;;;;;11.23;8.27;;;;;;;;;;4994768;28;20228;-81
2022/03/21 08:32:11;;;;;;;11.97;7.90;;;;;;;;;;4994725;28;20750;-83
2022/03/21 08:34:38;;;;;;;10.23;7.93;;;;;;;;;;4994917;28;20219;-82
2022/03/21 08:37:05;;;;;;;11.40;8.17;;;;;;;;;;4994475;28;20734;-83
2022/03/21 08:39:34;;;;;;;12.90;8.30;;;;;;;;;;4994623;28;20228;-83
2022/03/21 08:42:01;;;;;;;10.57;8.07;;;;;;;;;;4995525;28;20263;-82
2022/03/21 08:44:29;;;;;;;11.30;8.07;;;;;;;;;;4995861;28;20580;-82
2022/03/21 08:46:56;;;;;;;12.20;7.47;;;;;;;;;;4996008;28;20270;-82
2022/03/21 08:49:27;;;;;;;11.50;7.77;;;;;;;;;;4997119;28;20228;-82
2022/03/21 08:51:54;;;;;;;10.97;8.30;;;;;;;;;;4995972;28;20314;-82
2022/03/21 08:54:22;;;;;;;10.67;7.53;;;;;;;;;;4996899;28;20200;-82
2022/03/21 08:56:50;;;;;;;14.00;8.27;;;;;;;;;;4996442;28;20239;-82
2022/03/21 08:59:18;;;;;;;10.87;7.80;;;;;;;;;;4995991;28;20228;-82
2022/03/21 09:01:46;;;;;;;14.03;7.80;;;;;;;;;;4996040;28;20251;-82
2022/03/21 09:04:13;;;;;;;11.30;7.77;;;;;;;;;;4996988;28;20239;-82
2022/03/21 09:06:40;;;;;;;11.77;8.70;;;;;;;;;;4995713;28;20271;-83
2022/03/21 09:09:08;;;;;;;9.40;7.77;;;;;;;;;;5020695;22;20248;-84
2022/03/21 09:11:35;;;;;;;9.73;7.70;;;;;;;;;;5008235;28;20318;-85
2022/03/21 09:14:03;;;;;;;9.87;8.30;;;;;;;;;;5012533;28;20203;-84
2022/03/21 09:16:30;;;;;;;10.70;8.13;;;;;;;;;;5014245;28;20238;-84
2022/03/21 09:18:57;;;;;;;11.47;8.43;;;;;;;;;;5014979;28;20375;-85
2022/03/21 09:21:24;;;;;;;10.60;8.63;;;;;;;;;;5014562;28;20262;-84
2022/03/21 09:23:51;;;;;;;12.17;7.97;;;;;;;;;;5015544;28;20298;-85
2022/03/21 09:26:21;;;;;;;15.77;8.10;;;;;;;;;;5015320;28;20239;-85
2022/03/21 09:28:49;;;;;;;10.00;8.23;;;;;;;;;;5015224;28;20203;-84
2022/03/21 09:31:18;;;;;;;11.27;7.97;;;;;;;;;;5014611;28;20803;-84
2022/03/21 09:33:45;;;;;;;8.83;7.13;;;;;;;;;;5014918;28;20199;-85
2022/03/21 09:36:13;;;;;;;11.47;8.00;;;;;;;;;;5014447;28;20715;-85
2022/03/21 09:38:41;;;;;;;11.57;8.40;;;;;;;;;;5014064;28;20207;-85
2022/03/21 09:41:13;;;;;;;10.37;7.93;;;;;;;;;;5013107;28;20343;-85
2022/03/21 09:43:40;;;;;;;9.20;7.63;;;;;;;;;;5013952;28;20198;-85
2022/03/21 09:46:08;;;;;;;10.60;8.00;;;;;;;;;;5013442;28;20442;-85
2022/03/21 09:48:37;;;;;;;12.00;8.10;;;;;;;;;;5009065;28;20200;-85
2022/03/21 09:51:04;;;;;;;9.83;7.37;;;;;;;;;;4994388;28;20240;-85
2022/03/21 09:53:32;;;;;;;10.07;8.23;;;;;;;;;;4995020;28;20208;-85
2022/03/21 09:56:00;;;;;;;11.17;8.03;;;;;;;;;;4993520;28;20236;-85
2022/03/21 09:58:30;;;;;;;8.90;7.50;;;;;;;;;;4993887;28;20208;-85
2022/03/21 10:00:57;;;;;;;10.17;8.10;;;;;;;;;;4993195;28;20613;-85
2022/03/21 10:03:24;;;;;;;11.53;8.10;;;;;;;;;;4994171;28;20215;-85
2022/03/21 10:05:52;;;;;;;11.37;7.73;;;;;;;;;;4993368;28;20240;-85
2022/03/21 10:08:21;;;;;;;10.73;8.30;;;;;;;;;;4993692;28;20231;-86
2022/03/21 10:10:55;;;;;;;10.77;8.37;;;;;;;;;;4992656;28;20263;-85
2022/03/21 10:13:23;;;;;;;11.13;8.03;;;;;;;;;;4993819;28;20203;-85
2022/03/21 10:15:50;;;;;;;10.93;8.10;;;;;;;;;;4993469;28;20232;-86
2022/03/21 10:18:19;;;;;;;10.00;8.10;;;;;;;;;;4993446;28;20668;-85
2022/03/21 10:20:46;;;;;;;11.10;7.77;;;;;;;;;;4991945;28;20763;-85
2022/03/21 10:23:18;;;;;;;9.93;8.37;;;;;;;;;;4993442;28;20239;-85
2022/03/21 10:25:45;;;;;;;8.82;7.93;;;;;;;;;;4992919;28;20262;-85
2022/03/21 10:28:12;;;;;;;12.75;9.00;;;;;;;;;;4993342;28;20269;-85
2022/03/21 10:30:43;;;;;;;12.43;8.65;;;;;;;;;;4992690;28;20232;-85
2022/03/21 10:33:10;;;;;;;10.25;8.43;;;;;;;;;;4993146;28;20185;-85
2022/03/21 10:35:46;;;;;;;10.63;8.35;;;;;;;;;;4992963;28;20235;-85
2022/03/21 10:38:13;;;;;;;11.52;8.30;;;;;;;;;;4994335;28;20207;-85
2022/03/21 10:40:46;;;;;;;12.27;8.98;;;;;;;;;;4993797;28;20238;-85
2022/03/21 10:43:14;;;;;;;12.73;8.70;;;;;;;;;;4984137;28;20216;-85
2022/03/21 10:45:46;;;;;;;12.15;9.45;;;;;;;;;;4986597;28;20246;-85
2022/03/21 10:48:14;;;;;;;11.57;8.68;;;;;;;;;;4993527;28;20599;-85
2022/03/21 10:50:42;;;;;;;12.27;9.25;;;;;;;;;;4992856;28;20242;-85
2022/03/21 10:53:11;;;;;;;12.77;8.63;;;;;;;;;;4993826;28;20203;-86
2022/03/21 10:55:38;;;;;;;11.43;9.20;;;;;;;;;;4992986;28;20601;-85
2022/03/21 10:58:07;;;;;;;12.70;9.38;;;;;;;;;;4993503;28;20207;-85
2022/03/21 11:00:34;;;;;;;11.15;9.15;;;;;;;;;;4992665;28;20239;-85
2022/03/21 11:03:05;;;;;;;11.68;9.32;;;;;;;;;;4992982;28;20587;-85
2022/03/21 11:05:33;;;;;;;13.40;8.90;;;;;;;;;;4992775;28;20586;-85
2022/03/21 11:08:00;;;;;;;14.15;10.05;;;;;;;;;;4993151;28;20235;-86
2022/03/21 11:10:28;;;;;;;12.27;9.50;;;;;;;;;;4992230;28;20244;-85
2022/03/21 11:12:56;;;;;;;13.07;10.43;;;;;;;;;;4993288;28;20211;-85
2022/03/21 11:15:24;;;;;;;12.75;9.32;;;;;;;;;;4992893;28;20723;-85
2022/03/21 11:17:52;;;;;;;10.30;8.77;;;;;;;;;;4992941;28;20687;-85
2022/03/21 11:20:19;;;;;;;15.50;10.27;;;;;;;;;;4991974;28;20746;-85
2022/03/21 11:22:46;;;;;;;12.38;9.52;;;;;;;;;;4993378;28;20203;-85
2022/03/21 11:25:14;;;;;;;12.85;10.80;;;;;;;;;;4992671;28;20211;-85
2022/03/21 11:27:51;;;;;;;13.30;9.82;;;;;;;;;;4993016;28;20227;-85
2022/03/21 11:30:22;;;;;;;11.43;10.23;;;;;;;;;;4992236;28;20615;-86
2022/03/21 11:32:54;;;;;;;10.30;9.18;;;;;;;;;;4992743;28;20746;-85
2022/03/21 11:35:25;;;;;;;14.30;9.40;;;;;;;;;;4995692;28;20218;-86
2022/03/21 11:37:53;;;;;;;13.07;10.48;;;;;;;;;;4996514;28;20251;-86
2022/03/21 11:40:33;;;;;;;12.90;9.40;;;;;;;;;;4996046;28;20231;-85
2022/03/21 11:43:19;;;;;;;14.40;10.30;;;;;;;;;;4996628;28;20204;-86
2022/03/21 11:45:47;;;;;;;14.60;10.70;;;;;;;;;;4996414;28;20242;-86
2022/03/21 11:48:35;;;;;;;13.13;10.40;;;;;;;;;;4996334;28;20223;-86
2022/03/21 11:51:22;;;;;;;11.85;9.70;;;;;;;;;;4995321;28;20235;-85
2022/03/21 11:53:50;;;;;;;14.38;11.35;;;;;;;;;;4996294;28;20196;-85
2022/03/21 11:56:17;;;;;;;14.02;10.30;;;;;;;;;;4995944;28;20608;-85
2022/03/21 11:58:45;;;;;;;12.45;10.00;;;;;;;;;;4996847;28;20259;-85
2022/03/21 12:01:13;;;;;;;16.17;10.90;;;;;;;;;;4995575;28;20250;-86
2022/03/21 12:03:43;;;;;;;12.35;10.48;;;;;;;;;;4996168;28;20197;-86
2022/03/21 12:06:23;;;;;;;11.90;9.35;;;;;;;;;;4996093;28;20231;-86
2022/03/21 12:08:51;;;;;;;12.05;9.68;;;;;;;;;;4996262;28;20231;-85
2022/03/21 12:11:52;;;;;;;12.07;9.88;;;;;;;;;;4995385;28;20246;-85
2022/03/21 12:14:23;;;;;;;13.95;9.82;;;;;;;;;;4995546;28;20200;-85
2022/03/21 12:17:17;;;;;;;12.13;9.75;;;;;;;;;;4995646;28;20319;-86
2022/03/21 12:20:18;;;;;;;12.40;9.80;;;;;;;;;;4995851;28;20888;-85
2022/03/21 12:22:52;;;;;;;12.27;8.88;;;;;;;;;;4916427;29;20306;-85
2022/03/21 12:25:21;;;;;;;10.32;8.60;;;;;;;;;;4916504;29;20237;-85
2022/03/21 12:27:50;;;;;;;11.23;8.40;;;;;;;;;;4956708;28;20267;-85
2022/03/21 12:30:34;;;;;;;11.82;8.80;;;;;;;;;;4995085;28;20262;-86
2022/03/21 12:33:01;;;;;;;12.15;9.07;;;;;;;;;;4995487;28;20247;-86
2022/03/21 12:35:47;;;;;;;11.77;9.00;;;;;;;;;;4994620;28;20240;-86
2022/03/21 12:38:16;;;;;;;9.98;8.10;;;;;;;;;;4995631;28;20188;-86
2022/03/21 12:40:52;;;;;;;13.35;9.02;;;;;;;;;;4994936;28;20763;-86
2022/03/21 12:43:20;;;;;;;12.27;8.85;;;;;;;;;;4996141;28;20229;-86
2022/03/21 12:45:49;;;;;;;9.82;8.43;;;;;;;;;;4994630;28;20580;-86
2022/03/21 12:48:17;;;;;;;12.23;9.10;;;;;;;;;;4975566;28;20248;-86
2022/03/21 12:50:47;;;;;;;10.95;8.63;;;;;;;;;;4975153;28;20236;-86
2022/03/21 12:53:18;;;;;;;11.35;9.05;;;;;;;;;;4976428;28;20211;-86
2022/03/21 12:55:46;;;;;;;9.55;8.35;;;;;;;;;;4975665;28;20233;-85
2022/03/21 12:58:14;;;;;;;11.55;9.05;;;;;;;;;;4975777;28;20248;-85
2022/03/21 13:00:43;;;;;;;11.32;9.00;;;;;;;;;;4975231;28;20240;-86
2022/03/21 13:03:11;;;;;;;10.00;8.25;;;;;;;;;;4975959;28;20216;-86
2022/03/21 13:11:21;;;;;;;12.60;8.85;;;;;;;;;;4974873;28;20767;-86
2022/03/21 13:13:54;;;;;;;9.73;8.25;;;;;;;;;;4975707;28;20212;-86
2022/03/21 13:16:21;;;;;;;12.25;8.50;;;;;;;;;;4974791;28;20247;-86
2022/03/21 13:18:49;;;;;;;12.80;9.00;;;;;;;;;;4975565;28;20639;-85
2022/03/21 13:21:19;;;;;;;9.25;7.68;;;;;;;;;;4992090;28;20239;-86
2022/03/21 13:23:48;;;;;;;12.30;9.20;;;;;;;;;;4994936;28;20197;-86
2022/03/21 13:26:18;;;;;;;10.43;8.20;;;;;;;;;;4994252;28;20232;-85
2022/03/21 13:28:45;;;;;;;9.43;7.97;;;;;;;;;;4994991;28;20232;-85
2022/03/21 13:31:17;;;;;;;16.17;8.80;;;;;;;;;;4994045;28;20247;-86
2022/03/21 13:33:51;;;;;;;11.80;8.27;;;;;;;;;;4994908;28;20193;-85
2022/03/21 13:36:19;;;;;;;11.88;8.43;;;;;;;;;;4994183;28;20242;-85
2022/03/21 13:38:47;;;;;;;11.20;8.30;;;;;;;;;;4994768;28;20204;-86
2022/03/21 13:41:15;;;;;;;13.60;8.82;;;;;;;;;;4989757;28;20246;-86
2022/03/21 13:43:43;;;;;;;10.57;8.38;;;;;;;;;;4989129;28;20676;-86
2022/03/21 13:46:10;;;;;;;12.52;9.25;;;;;;;;;;4993828;28;20262;-86
2022/03/21 13:48:39;;;;;;;10.73;8.35;;;;;;;;;;4995054;28;20223;-86
2022/03/21 13:51:07;;;;;;;10.57;9.07;;;;;;;;;;4993421;28;20243;-85
2022/03/21 13:53:37;;;;;;;10.55;8.48;;;;;;;;;;4992441;28;20227;-85
2022/03/21 13:56:07;;;;;;;12.60;8.65;;;;;;;;;;4992331;28;20735;-86
2022/03/21 13:58:36;;;;;;;13.82;8.63;;;;;;;;;;4993906;28;20259;-87
2022/03/21 14:01:05;;;;;;;10.63;8.65;;;;;;;;;;4994089;28;20295;-84
2022/03/21 14:03:33;;;;;;;12.00;8.93;;;;;;;;;;4994129;28;20207;-84
2022/03/21 14:06:01;;;;;;;10.30;8.63;;;;;;;;;;4982215;28;20247;-85
2022/03/21 14:08:28;;;;;;;13.23;9.52;;;;;;;;;;4974581;28;20237;-84
2022/03/21 14:11:02;;;;;;;11.65;8.00;;;;;;;;;;4987860;28;20239;-85
2022/03/21 14:13:31;;;;;;;10.48;8.52;;;;;;;;;;4995709;28;20219;-85
2022/03/21 14:15:59;;;;;;;11.25;8.65;;;;;;;;;;4993621;28;20239;-86
2022/03/21 14:18:27;;;;;;;11.50;9.07;;;;;;;;;;4992236;28;20741;-86
2022/03/21 14:20:55;;;;;;;11.18;8.75;;;;;;;;;;4992432;28;20243;-86
2022/03/21 14:23:22;;;;;;;9.85;7.57;;;;;;;;;;4995403;28;20306;-86
2022/03/21 14:28:35;;;;;;;12.82;8.80;;;;;;;;;;4995009;28;20214;-85
2022/03/21 14:31:04;;;;;;;11.43;8.52;;;;;;;;;;4994907;28;20243;-86
2022/03/21 14:33:31;;;;;;;9.98;8.65;;;;;;;;;;4995619;28;20268;-86
2022/03/21 14:35:58;;;;;;;12.57;8.63;;;;;;;;;;4995272;28;20743;-86
2022/03/21 14:38:25;;;;;;;11.98;9.23;;;;;;;;;;4995099;28;20211;-86
2022/03/21 14:40:53;;;;;;;12.15;8.65;;;;;;;;;;4994985;28;20700;-86
2022/03/21 14:43:25;;;;;;;9.65;8.65;;;;;;;;;;4995082;28;20680;-85
2022/03/21 14:45:54;;;;;;;11.15;8.38;;;;;;;;;;4994278;28;20247;-86
2022/03/21 14:48:22;;;;;;;9.30;7.93;;;;;;;;;;4994225;28;20235;-86
2022/03/21 14:50:49;;;;;;;11.07;8.35;;;;;;;;;;4987679;28;20235;-86
2022/03/21 14:53:16;;;;;;;13.18;8.32;;;;;;;;;;4985052;28;20208;-86
2022/03/21 14:55:43;;;;;;;10.52;7.72;;;;;;;;;;4992500;28;20236;-86
2022/03/21 14:58:10;;;;;;;12.40;8.50;;;;;;;;;;4992879;28;20215;-86
2022/03/21 15:00:39;;;;;;;9.32;8.13;;;;;;;;;;4992807;28;20241;-85
2022/03/21 15:03:08;;;;;;;10.80;8.32;;;;;;;;;;4993568;28;20218;-85